createdAt,value
2017-08-29T00:01:59.619Z,17.90
2017-08-29T00:04:26.932Z,16.33
2017-08-29T00:06:54.245Z,18.30
2017-08-29T00:09:21.565Z,18.40
2017-08-29T00:11:48.913Z,18.53
2017-08-29T00:14:16.246Z,17.17
2017-08-29T00:16:43.606Z,19.20
2017-08-29T00:19:10.927Z,18.43
2017-08-29T00:21:38.589Z,17.90
2017-08-29T00:24:05.889Z,21.33
2017-08-29T00:26:33.241Z,19.00
2017-08-29T00:29:01.255Z,18.70
2017-08-29T00:31:28.554Z,18.47
2017-08-29T00:33:55.919Z,16.60
2017-08-29T00:36:23.239Z,19.70
2017-08-29T00:38:50.558Z,19.27
2017-08-29T00:41:17.880Z,17.97
2017-08-29T00:43:45.205Z,16.67
2017-08-29T00:46:12.501Z,15.90
2017-08-29T00:48:39.855Z,16.70
2017-08-29T00:51:07.786Z,19.10
2017-08-29T00:53:35.152Z,19.10
2017-08-29T00:56:02.478Z,17.20
2017-08-29T00:58:29.830Z,17.57
2017-08-29T01:00:57.153Z,19.00
2017-08-29T01:03:24.517Z,14.77
2017-08-29T01:05:51.843Z,16.27
2017-08-29T01:08:19.193Z,16.73
2017-08-29T01:10:46.527Z,16.37
2017-08-29T01:13:13.886Z,16.13
2017-08-29T01:15:41.210Z,15.33
2017-08-29T01:18:08.770Z,16.80
2017-08-29T01:20:36.106Z,15.80
2017-08-29T01:23:03.445Z,16.43
2017-08-29T01:25:30.792Z,16.40
2017-08-29T01:27:58.131Z,15.00
2017-08-29T01:30:25.482Z,15.83
2017-08-29T01:32:52.813Z,14.70
2017-08-29T01:35:20.354Z,15.83
2017-08-29T01:37:47.695Z,16.67
2017-08-29T01:40:15.041Z,16.10
2017-08-29T01:42:42.375Z,22.00
2017-08-29T01:45:09.747Z,16.17
2017-08-29T01:47:37.049Z,14.33
2017-08-29T01:50:04.377Z,16.10
2017-08-29T01:52:31.689Z,14.57
2017-08-29T01:54:59.006Z,15.23
2017-08-29T01:57:26.334Z,16.47
2017-08-29T01:59:53.714Z,16.30
2017-08-29T02:02:21.027Z,13.87
2017-08-29T02:04:48.336Z,17.27
2017-08-29T02:07:15.683Z,14.27
2017-08-29T02:09:42.986Z,13.90
2017-08-29T02:12:10.293Z,16.27
2017-08-29T02:14:37.611Z,16.30
2017-08-29T02:17:04.985Z,14.83
2017-08-29T02:19:32.299Z,17.30
2017-08-29T02:21:59.650Z,15.40
2017-08-29T02:24:26.976Z,15.23
2017-08-29T02:26:54.343Z,15.90
2017-08-29T02:29:21.654Z,13.90
2017-08-29T02:31:49.007Z,14.33
2017-08-29T02:34:16.339Z,14.30
2017-08-29T02:36:43.698Z,15.27
2017-08-29T02:39:11.005Z,15.33
2017-08-29T02:41:38.349Z,16.03
2017-08-29T02:44:05.674Z,13.97
2017-08-29T02:46:32.973Z,14.50
2017-08-29T02:49:00.306Z,16.23
2017-08-29T02:51:27.635Z,14.80
2017-08-29T02:53:54.991Z,14.87
2017-08-29T02:56:22.600Z,13.40
2017-08-29T02:58:49.921Z,14.10
2017-08-29T03:01:17.225Z,14.10
2017-08-29T03:03:44.545Z,14.10
2017-08-29T03:06:11.860Z,13.67
2017-08-29T03:08:39.194Z,12.67
2017-08-29T03:11:06.497Z,13.93
2017-08-29T03:13:33.827Z,14.10
2017-08-29T03:16:01.162Z,11.80
2017-08-29T03:18:28.509Z,13.60
2017-08-29T03:20:55.830Z,14.63
2017-08-29T03:23:23.146Z,15.93
2017-08-29T03:25:50.490Z,15.53
2017-08-29T03:28:17.786Z,15.70
2017-08-29T03:30:45.124Z,14.63
2017-08-29T03:33:12.435Z,17.27
2017-08-29T03:35:39.778Z,18.70
2017-08-29T03:38:07.118Z,16.53
2017-08-29T03:40:34.461Z,16.90
2017-08-29T03:43:01.784Z,13.73
2017-08-29T03:45:29.143Z,16.60
2017-08-29T03:47:56.483Z,14.10
2017-08-29T03:50:23.831Z,14.77
2017-08-29T03:52:51.149Z,15.13
2017-08-29T03:55:18.521Z,17.27
2017-08-29T03:57:45.850Z,13.10
2017-08-29T04:00:13.175Z,16.20
2017-08-29T04:02:40.520Z,16.67
2017-08-29T04:05:07.826Z,23.73
2017-08-29T04:07:35.156Z,21.60
2017-08-29T04:10:02.474Z,14.50
2017-08-29T04:12:30.112Z,17.50
2017-08-29T04:14:57.435Z,13.23
2017-08-29T04:17:24.812Z,14.23
2017-08-29T04:19:52.112Z,14.40
2017-08-29T04:22:19.480Z,19.80
2017-08-29T04:24:46.837Z,14.77
2017-08-29T04:27:14.161Z,18.33
2017-08-29T04:29:41.488Z,14.90
2017-08-29T04:32:09.036Z,16.87
2017-08-29T04:34:36.362Z,14.40
2017-08-29T04:37:03.727Z,19.37
2017-08-29T04:39:31.038Z,18.37
2017-08-29T04:41:58.388Z,18.70
2017-08-29T04:44:25.730Z,15.70
2017-08-29T04:46:53.083Z,15.80
2017-08-29T04:49:20.414Z,17.60
2017-08-29T04:51:47.774Z,15.80
2017-08-29T04:54:15.094Z,20.50
2017-08-29T04:56:42.442Z,15.50
2017-08-29T04:59:09.781Z,14.67
2017-08-29T05:01:37.128Z,16.90
2017-08-29T05:04:04.482Z,16.17
2017-08-29T05:06:31.814Z,14.23
2017-08-29T05:08:59.359Z,14.80
2017-08-29T05:11:26.686Z,16.70
2017-08-29T05:13:54.037Z,14.20
2017-08-29T05:16:21.353Z,18.07
2017-08-29T05:18:48.674Z,15.37
2017-08-29T05:21:15.984Z,14.67
2017-08-29T05:23:43.322Z,15.30
2017-08-29T05:26:10.637Z,14.93
2017-08-29T05:28:37.999Z,15.13
2017-08-29T05:31:05.934Z,15.70
2017-08-29T05:33:33.311Z,20.73
2017-08-29T05:36:00.608Z,14.43
2017-08-29T05:38:27.975Z,16.03
2017-08-29T05:40:55.297Z,16.60
2017-08-29T05:43:22.638Z,14.70
2017-08-29T05:45:50.071Z,14.80
2017-08-29T05:48:17.393Z,14.33
2017-08-29T05:50:44.706Z,17.43
2017-08-29T05:53:12.033Z,15.17
2017-08-29T05:55:39.342Z,17.80
2017-08-29T05:58:06.708Z,15.93
2017-08-29T06:00:34.069Z,15.40
2017-08-29T06:03:01.395Z,15.90
2017-08-29T06:05:28.716Z,17.83
2017-08-29T06:07:56.072Z,15.13
2017-08-29T06:10:23.399Z,15.87
2017-08-29T06:12:50.729Z,19.17
2017-08-29T06:15:18.095Z,16.70
2017-08-29T06:17:45.412Z,20.13
2017-08-29T06:20:12.761Z,17.10
2017-08-29T06:22:40.095Z,16.40
2017-08-29T06:25:07.458Z,13.70
2017-08-29T06:27:34.782Z,16.20
2017-08-29T06:30:02.130Z,17.37
2017-08-29T06:32:29.458Z,18.20
2017-08-29T06:34:56.852Z,16.20
2017-08-29T06:37:24.162Z,16.50
2017-08-29T06:39:51.493Z,13.97
2017-08-29T06:42:18.847Z,14.50
2017-08-29T06:44:46.187Z,14.93
2017-08-29T06:47:13.527Z,13.40
2017-08-29T06:49:41.169Z,13.33
2017-08-29T06:52:08.566Z,13.03
2017-08-29T06:54:35.894Z,15.47
2017-08-29T06:57:03.206Z,12.57
2017-08-29T06:59:30.557Z,16.90
2017-08-29T07:01:58.401Z,11.80
2017-08-29T07:04:25.741Z,14.93
2017-08-29T07:06:53.067Z,12.27
2017-08-29T07:09:20.381Z,12.07
2017-08-29T07:11:47.764Z,16.47
2017-08-29T07:14:15.081Z,13.60
2017-08-29T07:16:42.422Z,15.93
2017-08-29T07:19:10.009Z,10.43
2017-08-29T07:21:37.357Z,12.73
2017-08-29T07:24:04.649Z,8.10
2017-08-29T07:26:32.015Z,10.50
2017-08-29T07:28:59.351Z,10.33
2017-08-29T07:31:26.706Z,10.50
2017-08-29T07:33:54.018Z,7.80
2017-08-29T07:36:21.374Z,8.50
2017-08-29T07:38:48.709Z,9.50
2017-08-29T07:41:16.084Z,7.80
2017-08-29T07:43:43.365Z,10.17
2017-08-29T07:46:10.688Z,8.33
2017-08-29T07:48:37.990Z,10.60
2017-08-29T07:51:05.301Z,6.57
2017-08-29T07:53:32.623Z,8.40
2017-08-29T07:55:59.994Z,8.70
2017-08-29T07:58:27.328Z,7.40
2017-08-29T08:00:54.625Z,7.57
2017-08-29T08:03:21.946Z,6.73
2017-08-29T08:05:49.255Z,6.97
2017-08-29T08:08:16.582Z,10.37
2017-08-29T08:10:44.045Z,6.70
2017-08-29T08:13:11.357Z,8.03
2017-08-29T08:15:38.704Z,7.83
2017-08-29T08:18:06.039Z,6.60
2017-08-29T08:20:33.343Z,5.90
2017-08-29T08:23:00.649Z,5.50
2017-08-29T08:25:27.982Z,9.47
2017-08-29T08:27:55.322Z,7.53
2017-08-29T08:30:22.645Z,12.30
2017-08-29T08:32:49.973Z,6.90
2017-08-29T08:35:17.270Z,8.93
2017-08-29T08:37:44.582Z,8.23
2017-08-29T08:40:11.911Z,5.33
2017-08-29T08:42:39.383Z,6.07
2017-08-29T08:45:07.019Z,8.37
2017-08-29T08:47:34.317Z,9.10
2017-08-29T08:50:01.604Z,7.87
2017-08-29T08:52:29.155Z,10.83
2017-08-29T08:54:56.476Z,7.30
2017-08-29T08:57:23.830Z,5.97
2017-08-29T08:59:51.154Z,9.17
2017-08-29T09:02:18.456Z,6.83
2017-08-29T09:04:45.755Z,9.03
2017-08-29T09:07:13.131Z,7.17
2017-08-29T09:09:40.421Z,7.70
2017-08-29T09:12:07.763Z,8.53
2017-08-29T09:14:35.077Z,5.20
2017-08-29T09:17:02.379Z,4.97
2017-08-29T09:19:29.702Z,6.50
2017-08-29T09:21:57.027Z,6.07
2017-08-29T09:24:24.329Z,7.80
2017-08-29T09:26:51.621Z,7.03
2017-08-29T09:29:18.962Z,5.70
2017-08-29T09:31:46.294Z,10.60
2017-08-29T09:34:13.641Z,8.67
2017-08-29T09:36:40.965Z,5.13
2017-08-29T09:39:08.324Z,5.07
2017-08-29T09:41:35.608Z,5.23
2017-08-29T09:44:03.019Z,5.70
2017-08-29T09:46:30.362Z,4.57
2017-08-29T09:48:57.695Z,5.10
2017-08-29T09:51:25.050Z,5.53
2017-08-29T09:53:52.377Z,6.57
2017-08-29T09:56:19.718Z,4.83
2017-08-29T09:58:47.070Z,5.63
2017-08-29T10:01:14.383Z,4.40
2017-08-29T10:03:41.673Z,5.50
2017-08-29T10:06:08.995Z,4.00
2017-08-29T10:08:36.297Z,6.20
2017-08-29T10:11:03.604Z,4.80
2017-08-29T10:13:30.911Z,4.33
2017-08-29T10:15:58.229Z,4.40
2017-08-29T10:18:25.574Z,8.60
2017-08-29T10:20:52.922Z,9.40
2017-08-29T10:23:20.258Z,5.97
2017-08-29T10:25:47.720Z,7.07
2017-08-29T10:28:15.047Z,5.37
2017-08-29T10:30:42.387Z,5.90
2017-08-29T10:33:09.726Z,8.27
2017-08-29T10:35:37.066Z,6.00
2017-08-29T10:38:04.389Z,6.70
2017-08-29T10:40:31.706Z,7.53
2017-08-29T10:42:59.015Z,5.83
2017-08-29T10:45:26.339Z,6.37
2017-08-29T10:47:53.659Z,6.63
2017-08-29T10:50:20.975Z,6.57
2017-08-29T10:52:48.392Z,6.73
2017-08-29T10:55:15.689Z,6.17
2017-08-29T10:57:43.087Z,7.37
2017-08-29T11:00:10.391Z,8.03
2017-08-29T11:02:37.741Z,13.03
2017-08-29T11:05:05.051Z,9.30
2017-08-29T11:07:32.362Z,11.00
2017-08-29T11:09:59.661Z,7.50
2017-08-29T11:12:26.983Z,10.00
2017-08-29T11:14:54.302Z,6.50
2017-08-29T11:17:21.615Z,7.03
2017-08-29T11:19:49.008Z,7.43
2017-08-29T11:22:16.338Z,5.80
2017-08-29T11:24:43.678Z,8.27
2017-08-29T11:27:11.330Z,6.60
2017-08-29T11:29:38.646Z,5.70
2017-08-29T11:32:05.949Z,5.83
2017-08-29T11:34:33.274Z,6.07
2017-08-29T11:37:00.589Z,7.53
2017-08-29T11:39:27.876Z,5.80
2017-08-29T11:41:55.185Z,5.73
2017-08-29T11:44:22.508Z,7.67
2017-08-29T11:46:49.851Z,5.50
2017-08-29T11:49:17.228Z,10.50
2017-08-29T11:51:44.558Z,6.90
2017-08-29T11:54:11.877Z,6.67
2017-08-29T11:56:39.533Z,6.23
2017-08-29T11:59:06.886Z,6.70
2017-08-29T12:01:34.234Z,5.90
2017-08-29T12:04:01.553Z,5.33
2017-08-29T12:06:29.011Z,5.20
2017-08-29T12:08:56.425Z,7.60
2017-08-29T12:11:23.867Z,6.77
2017-08-29T12:13:51.163Z,5.07
2017-08-29T12:16:18.669Z,7.23
2017-08-29T12:18:46.006Z,6.70
2017-08-29T12:21:13.350Z,6.30
2017-08-29T12:23:40.648Z,9.77
2017-08-29T12:26:07.944Z,6.17
2017-08-29T12:28:35.264Z,5.60
2017-08-29T12:31:02.556Z,7.40
2017-08-29T12:33:29.856Z,6.20
2017-08-29T12:35:57.207Z,6.07
2017-08-29T12:38:24.582Z,7.67
2017-08-29T12:40:51.885Z,6.87
2017-08-29T12:43:19.201Z,6.80
2017-08-29T12:45:46.512Z,6.70
2017-08-29T12:48:13.847Z,10.90
2017-08-29T12:50:41.235Z,6.10
2017-08-29T12:53:08.570Z,9.30
2017-08-29T12:55:35.881Z,6.17
2017-08-29T12:58:03.178Z,7.40
2017-08-29T13:00:30.664Z,6.43
2017-08-29T13:02:58.145Z,5.10
2017-08-29T13:05:25.462Z,8.17
2017-08-29T13:07:52.769Z,5.10
2017-08-29T13:10:20.180Z,10.53
2017-08-29T13:12:47.506Z,8.70
2017-08-29T13:15:14.836Z,4.90
2017-08-29T13:17:42.600Z,4.97
2017-08-29T13:20:09.911Z,5.33
2017-08-29T13:22:37.210Z,4.97
2017-08-29T13:25:04.618Z,4.70
2017-08-29T13:27:31.934Z,7.60
2017-08-29T13:29:59.309Z,5.97
2017-08-29T13:32:26.667Z,5.33
2017-08-29T13:34:54.049Z,5.27
2017-08-29T13:37:21.544Z,4.27
2017-08-29T15:01:45.934Z,4.55
2017-08-29T15:04:13.309Z,4.50
2017-08-29T15:06:40.615Z,5.57
2017-08-29T15:09:07.916Z,4.20
2017-08-29T15:11:35.214Z,6.20
2017-08-29T15:14:02.542Z,9.68
2017-08-29T15:16:29.840Z,4.18
2017-08-29T15:18:57.170Z,5.82
2017-08-29T15:21:24.472Z,4.12
2017-08-29T15:23:51.776Z,4.37
2017-08-29T15:26:19.093Z,7.65
2017-08-29T15:28:46.465Z,3.62
2017-08-29T15:31:13.775Z,3.83
2017-08-29T15:33:41.064Z,4.82
2017-08-29T15:36:08.418Z,3.83
2017-08-29T15:38:35.740Z,4.65
2017-08-29T15:41:03.182Z,5.55
2017-08-29T15:43:30.506Z,3.80
2017-08-29T15:45:57.839Z,4.00
2017-08-29T15:48:25.139Z,3.85
2017-08-29T15:50:52.465Z,4.00
2017-08-29T15:53:19.763Z,5.30
2017-08-29T15:55:47.098Z,4.90
2017-08-29T15:58:14.398Z,5.37
2017-08-29T16:00:41.701Z,4.25
2017-08-29T16:03:09.051Z,4.37
2017-08-29T16:05:36.392Z,4.43
2017-08-29T16:08:03.724Z,3.83
2017-08-29T16:10:31.099Z,4.28
2017-08-29T16:12:58.413Z,4.00
2017-08-29T16:15:25.723Z,5.87
2017-08-29T16:17:53.142Z,4.15
2017-08-29T16:20:20.450Z,3.78
2017-08-29T16:22:47.773Z,4.55
2017-08-29T16:25:15.092Z,4.18
2017-08-29T16:27:42.410Z,6.65
2017-08-29T16:30:09.726Z,6.18
2017-08-29T16:32:37.037Z,4.20
2017-08-29T16:35:04.333Z,3.90
2017-08-29T16:37:31.652Z,4.57
2017-08-29T16:39:58.966Z,4.07
2017-08-29T16:42:26.307Z,4.78
2017-08-29T16:44:53.633Z,4.18
2017-08-29T16:47:20.950Z,5.75
2017-08-29T16:49:48.241Z,5.22
2017-08-29T16:52:15.566Z,5.22
2017-08-29T16:54:42.889Z,4.12
2017-08-29T16:57:10.276Z,4.95
2017-08-29T16:59:37.583Z,4.75
2017-08-29T17:02:04.905Z,5.67
2017-08-29T17:04:32.217Z,7.40
2017-08-29T17:06:59.509Z,6.37
2017-08-29T17:09:26.858Z,4.77
2017-08-29T17:11:54.180Z,8.23
2017-08-29T17:14:21.540Z,7.57
2017-08-29T17:16:49.156Z,7.50
2017-08-29T17:19:16.473Z,5.30
2017-08-29T17:21:43.769Z,7.27
2017-08-29T17:24:11.103Z,6.23
2017-08-29T17:26:38.430Z,9.07
2017-08-29T17:29:05.736Z,7.47
2017-08-29T17:31:33.107Z,7.37
2017-08-29T17:34:00.429Z,13.67
2017-08-29T17:36:27.759Z,6.77
2017-08-29T17:38:55.277Z,8.20
2017-08-29T17:41:22.586Z,9.60
2017-08-29T17:43:50.222Z,10.47
2017-08-29T17:46:17.531Z,13.20
2017-08-29T17:48:44.996Z,14.47
2017-08-29T17:51:12.305Z,9.40
2017-08-29T17:53:39.700Z,9.83
2017-08-29T17:56:07.172Z,10.73
2017-08-29T17:58:34.504Z,12.20
2017-08-29T18:01:02.159Z,11.80
2017-08-29T18:03:29.475Z,16.10
2017-08-29T18:05:56.839Z,16.70
2017-08-29T18:08:24.192Z,14.00
2017-08-29T18:10:51.521Z,18.03
2017-08-29T18:13:18.856Z,17.40
2017-08-29T18:15:46.194Z,14.10
2017-08-29T18:18:13.546Z,14.33
2017-08-29T18:20:40.885Z,13.90
2017-08-29T18:23:08.204Z,12.73
2017-08-29T18:25:35.560Z,14.60
2017-08-29T18:28:02.889Z,11.97
2017-08-29T18:30:30.252Z,14.17
2017-08-29T18:32:57.644Z,13.53
2017-08-29T18:35:24.977Z,12.47
2017-08-29T18:37:52.373Z,10.50
2017-08-29T18:40:19.758Z,12.67
2017-08-29T18:42:47.082Z,12.97
2017-08-29T18:45:14.424Z,12.63
2017-08-29T18:47:41.756Z,15.03
2017-08-29T18:50:09.222Z,17.30
2017-08-29T18:52:36.634Z,13.70
2017-08-29T18:55:03.947Z,16.63
2017-08-29T18:57:31.312Z,13.73
2017-08-29T18:59:58.637Z,14.77
2017-08-29T19:02:25.960Z,14.80
2017-08-29T19:04:53.390Z,12.60
2017-08-29T19:07:20.734Z,16.67
2017-08-29T19:09:48.044Z,18.00
2017-08-29T19:12:15.382Z,18.70
2017-08-29T19:14:42.761Z,18.40
2017-08-29T19:17:10.078Z,15.27
2017-08-29T19:19:38.573Z,16.27
2017-08-29T19:22:05.890Z,18.67
2017-08-29T19:24:33.286Z,13.80
2017-08-29T19:27:00.677Z,13.53
2017-08-29T19:29:28.005Z,12.77
2017-08-29T19:31:55.434Z,12.57
2017-08-29T19:34:22.770Z,12.67
2017-08-29T19:36:50.128Z,14.70
2017-08-29T19:39:17.472Z,14.17
2017-08-29T19:41:44.845Z,15.53
2017-08-29T19:44:12.168Z,12.40
2017-08-29T19:46:39.472Z,17.50
2017-08-29T19:49:06.792Z,17.73
2017-08-29T19:51:34.221Z,14.50
2017-08-29T19:54:01.538Z,15.40
2017-08-29T19:56:28.884Z,19.40
2017-08-29T19:58:56.232Z,16.27
2017-08-29T20:01:23.533Z,17.83
2017-08-29T20:03:50.914Z,16.50
2017-08-29T20:06:18.239Z,15.37
2017-08-29T20:08:45.635Z,15.87
2017-08-29T20:11:12.950Z,17.30
2017-08-29T20:13:41.131Z,16.03
2017-08-29T20:16:08.958Z,16.70
2017-08-29T20:18:36.271Z,14.63
2017-08-29T20:21:03.605Z,15.30
2017-08-29T20:23:30.932Z,17.37
2017-08-29T20:25:58.272Z,19.10
2017-08-29T20:28:25.620Z,20.10
2017-08-29T20:30:52.980Z,23.10
2017-08-29T20:33:20.689Z,27.33
2017-08-29T20:35:48.229Z,15.77
2017-08-29T20:38:15.565Z,16.13
2017-08-29T20:40:43.038Z,18.17
2017-08-29T20:43:10.365Z,22.37
2017-08-29T20:45:37.715Z,26.53
2017-08-29T20:48:05.033Z,29.10
2017-08-29T20:50:32.407Z,20.97
2017-08-29T20:52:59.719Z,24.10
2017-08-29T20:55:27.054Z,17.67
2017-08-29T20:57:54.377Z,14.97
2017-08-29T21:00:21.685Z,16.00
2017-08-29T21:02:49.007Z,18.10
2017-08-29T21:05:16.312Z,15.70
2017-08-29T21:07:43.677Z,16.17
2017-08-29T21:10:10.984Z,20.50
2017-08-29T21:12:38.301Z,18.70
2017-08-29T21:15:05.604Z,16.80
2017-08-29T21:17:32.935Z,15.23
2017-08-29T21:20:00.252Z,15.20
2017-08-29T21:22:27.611Z,16.43
2017-08-29T21:24:55.231Z,17.57
2017-08-29T21:27:22.552Z,16.43
2017-08-29T21:29:49.870Z,16.10
2017-08-29T21:32:17.188Z,40.27
2017-08-29T21:34:44.510Z,19.43
2017-08-29T21:37:11.875Z,21.93
2017-08-29T21:39:39.184Z,23.60
2017-08-29T21:42:06.549Z,31.13
2017-08-29T21:44:33.870Z,19.13
2017-08-29T21:47:01.172Z,20.13
2017-08-29T21:49:28.489Z,18.73
2017-08-29T21:51:55.817Z,20.80
2017-08-29T21:54:23.481Z,17.23
2017-08-29T21:56:50.980Z,18.80
2017-08-29T21:59:18.301Z,20.20
2017-08-29T22:01:45.601Z,21.17
2017-08-29T22:04:12.920Z,32.83
2017-08-29T22:06:40.274Z,19.87
2017-08-29T22:09:08.837Z,21.67
2017-08-29T22:11:36.165Z,18.20
2017-08-29T22:14:03.526Z,19.63
2017-08-29T22:16:30.844Z,24.03
2017-08-29T22:18:58.210Z,19.10
2017-08-29T22:21:25.634Z,20.50
2017-08-29T22:23:52.986Z,20.87
2017-08-29T22:26:20.337Z,18.57
2017-08-29T22:28:47.649Z,19.90
2017-08-29T22:31:14.957Z,22.60
2017-08-29T22:33:42.282Z,19.30
2017-08-29T22:36:09.594Z,22.60
2017-08-29T22:38:36.929Z,19.17
2017-08-29T22:41:04.256Z,19.70
2017-08-29T22:43:31.625Z,18.60
2017-08-29T22:45:58.926Z,19.27
2017-08-29T22:48:26.256Z,17.93
2017-08-29T22:50:53.577Z,21.33
2017-08-29T22:53:21.065Z,20.97
2017-08-29T22:55:48.400Z,20.40
2017-08-29T22:58:15.699Z,22.80
2017-08-29T23:00:43.024Z,21.73
2017-08-29T23:03:10.341Z,19.47
2017-08-29T23:05:37.693Z,23.60
2017-08-29T23:08:05.018Z,21.00
2017-08-29T23:10:32.360Z,20.83
2017-08-29T23:12:59.709Z,19.60
2017-08-29T23:15:27.025Z,29.63
2017-08-29T23:17:54.382Z,20.20
2017-08-29T23:20:21.763Z,20.63
2017-08-29T23:22:49.388Z,19.80
2017-08-29T23:25:16.717Z,22.90
2017-08-29T23:27:44.040Z,19.77
2017-08-29T23:30:11.390Z,21.07
2017-08-29T23:32:38.717Z,18.10
2017-08-29T23:35:06.086Z,19.97
2017-08-29T23:37:33.390Z,19.63
2017-08-29T23:40:00.696Z,22.70
2017-08-29T23:42:27.996Z,21.20
2017-08-29T23:44:55.346Z,24.67
2017-08-29T23:47:22.658Z,20.63
2017-08-29T23:49:50.047Z,19.57
2017-08-29T23:52:17.659Z,23.10
2017-08-29T23:54:45.020Z,21.63
2017-08-29T23:57:12.366Z,22.43
2017-08-29T23:59:39.672Z,19.67
